sensor_id;sensor_type;location;lat;lon;timestamp;temperature;humidity
947;DHT22;460;48.734;9.152;2023-05-07T00:02:04;13.60;98.30
947;DHT22;460;48.734;9.152;2023-05-07T00:04:31;13.60;99.00
947;DHT22;460;48.734;9.152;2023-05-07T00:07:02;13.50;99.50
947;DHT22;460;48.734;9.152;2023-05-07T00:09:29;13.40;99.40
947;DHT22;460;48.734;9.152;2023-05-07T00:11:56;13.40;99.60
947;DHT22;460;48.734;9.152;2023-05-07T00:14:25;13.40;99.40
947;DHT22;460;48.734;9.152;2023-05-07T00:16:52;13.40;98.80
947;DHT22;460;48.734;9.152;2023-05-07T00:19:20;13.40;99.30
947;DHT22;460;48.734;9.152;2023-05-07T00:21:47;13.30;99.90
947;DHT22;460;48.734;9.152;2023-05-07T00:24:14;13.30;99.90
947;DHT22;460;48.734;9.152;2023-05-07T00:26:40;13.20;99.90
947;DHT22;460;48.734;9.152;2023-05-07T00:29:07;13.20;99.90
947;DHT22;460;48.734;9.152;2023-05-07T00:31:34;13.30;99.70
947;DHT22;460;48.734;9.152;2023-05-07T00:34:02;13.30;99.90
947;DHT22;460;48.734;9.152;2023-05-07T00:36:30;13.20;99.90
947;DHT22;460;48.734;9.152;2023-05-07T00:38:59;13.10;99.90
947;DHT22;460;48.734;9.152;2023-05-07T00:41:27;13.10;99.90
947;DHT22;460;48.734;9.152;2023-05-07T00:43:54;13.20;99.90
947;DHT22;460;48.734;9.152;2023-05-07T00:46:21;13.10;99.90
947;DHT22;460;48.734;9.152;2023-05-07T00:48:48;13.00;99.90
947;DHT22;460;48.734;9.152;2023-05-07T00:51:16;13.10;99.90
947;DHT22;460;48.734;9.152;2023-05-07T00:53:45;13.10;99.90
947;DHT22;460;48.734;9.152;2023-05-07T00:56:13;13.00;99.90
947;DHT22;460;48.734;9.152;2023-05-07T00:58:40;13.00;99.90
947;DHT22;460;48.734;9.152;2023-05-07T01:01:07;13.00;99.90
947;DHT22;460;48.734;9.152;2023-05-07T01:03:34;13.00;99.90
947;DHT22;460;48.734;9.152;2023-05-07T01:06:01;13.00;99.90
947;DHT22;460;48.734;9.152;2023-05-07T01:08:29;13.00;99.90
947;DHT22;460;48.734;9.152;2023-05-07T01:10:58;13.00;99.90
947;DHT22;460;48.734;9.152;2023-05-07T01:13:25;12.90;99.90
947;DHT22;460;48.734;9.152;2023-05-07T01:15:54;12.80;99.90
947;DHT22;460;48.734;9.152;2023-05-07T01:18:22;12.90;99.90
947;DHT22;460;48.734;9.152;2023-05-07T01:20:49;12.90;99.90
947;DHT22;460;48.734;9.152;2023-05-07T01:23:18;13.00;99.90
947;DHT22;460;48.734;9.152;2023-05-07T01:25:51;12.90;99.90
947;DHT22;460;48.734;9.152;2023-05-07T01:28:20;13.00;99.90
947;DHT22;460;48.734;9.152;2023-05-07T01:30:49;13.00;99.90
947;DHT22;460;48.734;9.152;2023-05-07T01:33:19;13.00;99.90
947;DHT22;460;48.734;9.152;2023-05-07T01:35:50;12.90;99.90
947;DHT22;460;48.734;9.152;2023-05-07T01:38:20;12.90;99.90
947;DHT22;460;48.734;9.152;2023-05-07T01:40:49;12.90;99.90
947;DHT22;460;48.734;9.152;2023-05-07T01:43:16;12.80;99.90
947;DHT22;460;48.734;9.152;2023-05-07T01:45:44;12.80;99.90
947;DHT22;460;48.734;9.152;2023-05-07T01:48:14;12.70;99.90
947;DHT22;460;48.734;9.152;2023-05-07T01:50:43;12.70;99.90
947;DHT22;460;48.734;9.152;2023-05-07T01:53:10;12.80;99.90
947;DHT22;460;48.734;9.152;2023-05-07T01:55:39;12.80;99.90
947;DHT22;460;48.734;9.152;2023-05-07T01:58:07;12.80;99.90
947;DHT22;460;48.734;9.152;2023-05-07T02:00:35;12.80;99.90
947;DHT22;460;48.734;9.152;2023-05-07T02:03:03;12.70;99.90
947;DHT22;460;48.734;9.152;2023-05-07T02:05:31;12.70;99.90
947;DHT22;460;48.734;9.152;2023-05-07T02:07:58;12.70;99.90
947;DHT22;460;48.734;9.152;2023-05-07T02:10:24;12.70;99.90
947;DHT22;460;48.734;9.152;2023-05-07T02:12:53;12.60;99.90
947;DHT22;460;48.734;9.152;2023-05-07T02:15:19;12.60;99.90
947;DHT22;460;48.734;9.152;2023-05-07T02:18:02;12.60;99.90
947;DHT22;460;48.734;9.152;2023-05-07T02:20:29;12.60;99.90
947;DHT22;460;48.734;9.152;2023-05-07T02:22:56;12.60;99.90
947;DHT22;460;48.734;9.152;2023-05-07T02:25:24;12.60;99.90
947;DHT22;460;48.734;9.152;2023-05-07T02:27:52;12.60;99.90
947;DHT22;460;48.734;9.152;2023-05-07T02:30:20;12.70;99.90
947;DHT22;460;48.734;9.152;2023-05-07T02:32:48;12.70;99.90
947;DHT22;460;48.734;9.152;2023-05-07T02:35:17;12.70;99.90
947;DHT22;460;48.734;9.152;2023-05-07T02:37:44;12.70;99.90
947;DHT22;460;48.734;9.152;2023-05-07T02:40:12;12.60;99.90
947;DHT22;460;48.734;9.152;2023-05-07T02:42:39;12.50;99.90
947;DHT22;460;48.734;9.152;2023-05-07T02:45:09;12.50;99.90
947;DHT22;460;48.734;9.152;2023-05-07T02:47:36;12.40;99.90
947;DHT22;460;48.734;9.152;2023-05-07T02:50:04;12.50;99.90
947;DHT22;460;48.734;9.152;2023-05-07T02:52:32;12.40;99.90
947;DHT22;460;48.734;9.152;2023-05-07T02:55:00;12.30;99.90
947;DHT22;460;48.734;9.152;2023-05-07T02:57:29;12.30;99.90
947;DHT22;460;48.734;9.152;2023-05-07T02:59:57;12.30;99.90
947;DHT22;460;48.734;9.152;2023-05-07T03:02:26;12.30;99.90
947;DHT22;460;48.734;9.152;2023-05-07T03:04:55;12.30;99.90
947;DHT22;460;48.734;9.152;2023-05-07T03:07:21;12.40;99.90
947;DHT22;460;48.734;9.152;2023-05-07T03:09:49;12.50;99.90
947;DHT22;460;48.734;9.152;2023-05-07T03:12:16;12.50;99.90
947;DHT22;460;48.734;9.152;2023-05-07T03:14:43;12.50;99.90
947;DHT22;460;48.734;9.152;2023-05-07T03:17:10;12.50;99.90
947;DHT22;460;48.734;9.152;2023-05-07T03:19:38;12.40;99.90
947;DHT22;460;48.734;9.152;2023-05-07T03:22:05;12.40;99.90
947;DHT22;460;48.734;9.152;2023-05-07T03:24:32;12.30;99.90
947;DHT22;460;48.734;9.152;2023-05-07T03:26:59;12.20;99.90
947;DHT22;460;48.734;9.152;2023-05-07T03:29:26;12.10;99.90
947;DHT22;460;48.734;9.152;2023-05-07T03:31:53;12.10;99.90
947;DHT22;460;48.734;9.152;2023-05-07T03:34:20;12.10;99.90
947;DHT22;460;48.734;9.152;2023-05-07T03:36:49;12.10;99.90
947;DHT22;460;48.734;9.152;2023-05-07T03:39:16;12.10;99.90
947;DHT22;460;48.734;9.152;2023-05-07T03:41:43;12.00;99.90
947;DHT22;460;48.734;9.152;2023-05-07T03:44:09;11.90;99.90
947;DHT22;460;48.734;9.152;2023-05-07T03:46:36;11.90;99.90
947;DHT22;460;48.734;9.152;2023-05-07T03:49:03;12.00;99.90
947;DHT22;460;48.734;9.152;2023-05-07T03:51:30;12.00;99.90
947;DHT22;460;48.734;9.152;2023-05-07T03:53:58;12.00;99.90
947;DHT22;460;48.734;9.152;2023-05-07T03:56:25;11.90;99.90
947;DHT22;460;48.734;9.152;2023-05-07T03:58:53;11.80;99.90
947;DHT22;460;48.734;9.152;2023-05-07T04:01:20;11.80;99.90
947;DHT22;460;48.734;9.152;2023-05-07T04:03:46;11.80;99.90
947;DHT22;460;48.734;9.152;2023-05-07T04:06:15;11.80;99.90
947;DHT22;460;48.734;9.152;2023-05-07T04:08:42;11.80;99.90
947;DHT22;460;48.734;9.152;2023-05-07T04:11:10;11.90;99.90
947;DHT22;460;48.734;9.152;2023-05-07T04:13:37;11.90;99.90
947;DHT22;460;48.734;9.152;2023-05-07T04:16:04;11.80;99.90
947;DHT22;460;48.734;9.152;2023-05-07T04:18:31;11.80;99.90
947;DHT22;460;48.734;9.152;2023-05-07T04:20:58;11.80;99.90
947;DHT22;460;48.734;9.152;2023-05-07T04:23:25;11.80;99.90
947;DHT22;460;48.734;9.152;2023-05-07T04:25:52;11.80;99.90
947;DHT22;460;48.734;9.152;2023-05-07T04:28:21;11.80;99.90
947;DHT22;460;48.734;9.152;2023-05-07T04:30:48;11.70;99.90
947;DHT22;460;48.734;9.152;2023-05-07T04:33:15;11.70;99.90
947;DHT22;460;48.734;9.152;2023-05-07T04:35:42;11.70;99.90
947;DHT22;460;48.734;9.152;2023-05-07T04:38:09;11.70;99.90
947;DHT22;460;48.734;9.152;2023-05-07T04:40:36;11.80;99.90
947;DHT22;460;48.734;9.152;2023-05-07T04:43:04;11.80;99.90
947;DHT22;460;48.734;9.152;2023-05-07T04:45:32;11.80;99.90
947;DHT22;460;48.734;9.152;2023-05-07T04:47:59;11.80;99.90
947;DHT22;460;48.734;9.152;2023-05-07T04:50:26;11.80;99.90
947;DHT22;460;48.734;9.152;2023-05-07T04:52:52;11.80;99.90
947;DHT22;460;48.734;9.152;2023-05-07T04:55:19;11.90;99.90
947;DHT22;460;48.734;9.152;2023-05-07T04:57:46;11.90;99.90
947;DHT22;460;48.734;9.152;2023-05-07T05:00:13;11.90;99.90
947;DHT22;460;48.734;9.152;2023-05-07T05:02:42;11.90;99.90
947;DHT22;460;48.734;9.152;2023-05-07T05:05:08;11.90;99.90
947;DHT22;460;48.734;9.152;2023-05-07T05:07:35;11.90;99.90
947;DHT22;460;48.734;9.152;2023-05-07T05:10:02;11.90;99.90
947;DHT22;460;48.734;9.152;2023-05-07T05:12:29;11.90;99.90
947;DHT22;460;48.734;9.152;2023-05-07T05:14:56;11.80;99.90
947;DHT22;460;48.734;9.152;2023-05-07T05:17:23;11.80;99.90
947;DHT22;460;48.734;9.152;2023-05-07T05:19:51;11.90;99.90
947;DHT22;460;48.734;9.152;2023-05-07T05:22:18;12.00;99.90
947;DHT22;460;48.734;9.152;2023-05-07T05:24:44;12.10;99.90
947;DHT22;460;48.734;9.152;2023-05-07T05:27:11;12.20;99.90
947;DHT22;460;48.734;9.152;2023-05-07T05:29:38;12.30;99.90
947;DHT22;460;48.734;9.152;2023-05-07T05:32:05;12.40;99.90
947;DHT22;460;48.734;9.152;2023-05-07T05:34:31;12.50;99.90
947;DHT22;460;48.734;9.152;2023-05-07T05:37:00;12.60;99.90
947;DHT22;460;48.734;9.152;2023-05-07T05:39:27;12.80;99.90
947;DHT22;460;48.734;9.152;2023-05-07T05:41:53;12.90;99.90
947;DHT22;460;48.734;9.152;2023-05-07T05:44:20;13.10;99.90
947;DHT22;460;48.734;9.152;2023-05-07T05:46:47;13.20;99.90
947;DHT22;460;48.734;9.152;2023-05-07T05:49:15;13.30;99.90
947;DHT22;460;48.734;9.152;2023-05-07T05:51:41;13.50;99.90
947;DHT22;460;48.734;9.152;2023-05-07T05:54:09;13.70;99.90
947;DHT22;460;48.734;9.152;2023-05-07T05:56:37;13.80;99.90
947;DHT22;460;48.734;9.152;2023-05-07T05:59:03;13.90;99.90
947;DHT22;460;48.734;9.152;2023-05-07T06:01:30;14.10;99.90
947;DHT22;460;48.734;9.152;2023-05-07T06:03:57;14.30;99.90
947;DHT22;460;48.734;9.152;2023-05-07T06:06:24;14.30;99.90
947;DHT22;460;48.734;9.152;2023-05-07T06:08:51;14.40;99.90
947;DHT22;460;48.734;9.152;2023-05-07T06:11:19;14.60;99.90
947;DHT22;460;48.734;9.152;2023-05-07T06:13:46;14.70;99.80
947;DHT22;460;48.734;9.152;2023-05-07T06:16:14;14.80;99.20
947;DHT22;460;48.734;9.152;2023-05-07T06:18:40;15.00;98.10
947;DHT22;460;48.734;9.152;2023-05-07T06:21:07;15.10;98.00
947;DHT22;460;48.734;9.152;2023-05-07T06:23:34;15.20;98.40
947;DHT22;460;48.734;9.152;2023-05-07T06:26:01;15.30;97.50
947;DHT22;460;48.734;9.152;2023-05-07T06:28:29;15.30;97.40
947;DHT22;460;48.734;9.152;2023-05-07T06:31:11;15.40;97.40
947;DHT22;460;48.734;9.152;2023-05-07T06:33:38;15.40;97.30
947;DHT22;460;48.734;9.152;2023-05-07T06:36:06;15.50;97.50
947;DHT22;460;48.734;9.152;2023-05-07T06:38:32;15.50;97.30
947;DHT22;460;48.734;9.152;2023-05-07T06:40:59;15.30;97.50
947;DHT22;460;48.734;9.152;2023-05-07T06:43:26;15.30;97.40
947;DHT22;460;48.734;9.152;2023-05-07T06:45:54;15.30;97.60
947;DHT22;460;48.734;9.152;2023-05-07T06:48:21;15.40;97.70
947;DHT22;460;48.734;9.152;2023-05-07T06:50:48;15.30;97.60
947;DHT22;460;48.734;9.152;2023-05-07T06:53:14;15.50;97.80
947;DHT22;460;48.734;9.152;2023-05-07T06:55:41;15.70;97.80
947;DHT22;460;48.734;9.152;2023-05-07T06:58:08;15.80;97.20
947;DHT22;460;48.734;9.152;2023-05-07T07:00:35;15.90;97.20
947;DHT22;460;48.734;9.152;2023-05-07T07:03:03;16.00;96.80
947;DHT22;460;48.734;9.152;2023-05-07T07:05:30;16.10;96.70
947;DHT22;460;48.734;9.152;2023-05-07T07:07:56;16.20;96.80
947;DHT22;460;48.734;9.152;2023-05-07T07:10:23;16.20;96.70
947;DHT22;460;48.734;9.152;2023-05-07T07:12:50;16.50;96.50
947;DHT22;460;48.734;9.152;2023-05-07T07:15:19;16.50;96.70
947;DHT22;460;48.734;9.152;2023-05-07T07:17:46;16.70;96.30
947;DHT22;460;48.734;9.152;2023-05-07T07:20:14;16.70;96.30
947;DHT22;460;48.734;9.152;2023-05-07T07:22:41;16.80;96.60
947;DHT22;460;48.734;9.152;2023-05-07T07:25:08;17.00;96.40
947;DHT22;460;48.734;9.152;2023-05-07T07:27:36;17.10;96.50
947;DHT22;460;48.734;9.152;2023-05-07T07:30:04;17.30;96.60
947;DHT22;460;48.734;9.152;2023-05-07T07:32:31;17.30;96.50
947;DHT22;460;48.734;9.152;2023-05-07T07:34:58;17.50;96.00
947;DHT22;460;48.734;9.152;2023-05-07T07:37:27;17.70;95.10
947;DHT22;460;48.734;9.152;2023-05-07T07:39:54;17.90;95.50
947;DHT22;460;48.734;9.152;2023-05-07T07:42:21;17.80;95.40
947;DHT22;460;48.734;9.152;2023-05-07T07:44:48;18.00;95.20
947;DHT22;460;48.734;9.152;2023-05-07T07:47:15;18.20;95.10
947;DHT22;460;48.734;9.152;2023-05-07T07:49:41;18.40;94.90
947;DHT22;460;48.734;9.152;2023-05-07T07:52:08;18.50;94.70
947;DHT22;460;48.734;9.152;2023-05-07T07:54:36;18.60;94.50
947;DHT22;460;48.734;9.152;2023-05-07T07:57:03;18.80;94.50
947;DHT22;460;48.734;9.152;2023-05-07T07:59:30;18.90;94.00
947;DHT22;460;48.734;9.152;2023-05-07T08:01:57;19.00;94.00
947;DHT22;460;48.734;9.152;2023-05-07T08:04:23;19.10;94.00
947;DHT22;460;48.734;9.152;2023-05-07T08:06:50;19.30;93.90
947;DHT22;460;48.734;9.152;2023-05-07T08:09:19;19.40;94.10
947;DHT22;460;48.734;9.152;2023-05-07T08:11:48;19.40;93.80
947;DHT22;460;48.734;9.152;2023-05-07T08:14:15;19.30;92.90
947;DHT22;460;48.734;9.152;2023-05-07T08:16:42;19.30;93.60
947;DHT22;460;48.734;9.152;2023-05-07T08:19:08;19.30;92.60
947;DHT22;460;48.734;9.152;2023-05-07T08:21:39;19.30;93.40
947;DHT22;460;48.734;9.152;2023-05-07T08:24:06;19.40;93.10
947;DHT22;460;48.734;9.152;2023-05-07T08:26:33;19.60;93.20
947;DHT22;460;48.734;9.152;2023-05-07T08:29:02;19.80;93.00
947;DHT22;460;48.734;9.152;2023-05-07T08:31:29;20.00;92.50
947;DHT22;460;48.734;9.152;2023-05-07T08:33:56;20.20;92.50
947;DHT22;460;48.734;9.152;2023-05-07T08:36:23;20.20;92.50
947;DHT22;460;48.734;9.152;2023-05-07T08:38:51;20.30;93.20
947;DHT22;460;48.734;9.152;2023-05-07T08:41:18;20.50;91.60
947;DHT22;460;48.734;9.152;2023-05-07T08:43:48;20.60;92.00
947;DHT22;460;48.734;9.152;2023-05-07T08:46:18;20.50;91.50
947;DHT22;460;48.734;9.152;2023-05-07T08:48:48;20.70;91.70
947;DHT22;460;48.734;9.152;2023-05-07T08:51:17;20.70;91.30
947;DHT22;460;48.734;9.152;2023-05-07T08:53:44;20.80;91.70
947;DHT22;460;48.734;9.152;2023-05-07T08:56:11;20.80;91.40
947;DHT22;460;48.734;9.152;2023-05-07T08:58:41;20.90;90.70
947;DHT22;460;48.734;9.152;2023-05-07T09:01:09;20.90;90.90
947;DHT22;460;48.734;9.152;2023-05-07T09:03:40;21.10;90.40
947;DHT22;460;48.734;9.152;2023-05-07T09:06:06;21.10;90.80
947;DHT22;460;48.734;9.152;2023-05-07T09:08:34;21.20;90.80
947;DHT22;460;48.734;9.152;2023-05-07T09:11:01;21.30;90.40
947;DHT22;460;48.734;9.152;2023-05-07T09:13:30;21.40;89.60
947;DHT22;460;48.734;9.152;2023-05-07T09:15:57;21.40;89.80
947;DHT22;460;48.734;9.152;2023-05-07T09:18:29;21.50;89.80
947;DHT22;460;48.734;9.152;2023-05-07T09:21:58;21.60;89.20
947;DHT22;460;48.734;9.152;2023-05-07T09:25:13;21.60;88.40
947;DHT22;460;48.734;9.152;2023-05-07T09:28:27;21.70;88.30
947;DHT22;460;48.734;9.152;2023-05-07T09:30:55;21.80;87.50
947;DHT22;460;48.734;9.152;2023-05-07T09:33:27;21.90;88.30
947;DHT22;460;48.734;9.152;2023-05-07T09:35:54;22.00;87.00
947;DHT22;460;48.734;9.152;2023-05-07T09:38:22;22.00;86.60
947;DHT22;460;48.734;9.152;2023-05-07T09:41:02;22.10;86.70
947;DHT22;460;48.734;9.152;2023-05-07T09:43:32;22.20;87.60
947;DHT22;460;48.734;9.152;2023-05-07T09:46:02;22.30;85.40
947;DHT22;460;48.734;9.152;2023-05-07T09:48:30;22.40;83.50
947;DHT22;460;48.734;9.152;2023-05-07T09:51:01;22.40;83.10
947;DHT22;460;48.734;9.152;2023-05-07T09:53:30;22.50;83.80
947;DHT22;460;48.734;9.152;2023-05-07T09:55:58;22.70;84.40
947;DHT22;460;48.734;9.152;2023-05-07T09:58:26;22.80;79.90
947;DHT22;460;48.734;9.152;2023-05-07T10:00:53;22.90;80.80
947;DHT22;460;48.734;9.152;2023-05-07T10:03:20;22.90;81.40
947;DHT22;460;48.734;9.152;2023-05-07T10:05:49;22.90;80.10
947;DHT22;460;48.734;9.152;2023-05-07T10:08:16;22.90;80.80
947;DHT22;460;48.734;9.152;2023-05-07T10:10:47;23.10;81.30
947;DHT22;460;48.734;9.152;2023-05-07T10:13:14;23.30;79.20
947;DHT22;460;48.734;9.152;2023-05-07T10:15:41;23.40;82.90
947;DHT22;460;48.734;9.152;2023-05-07T10:18:08;23.40;80.80
947;DHT22;460;48.734;9.152;2023-05-07T10:20:36;23.60;80.50
947;DHT22;460;48.734;9.152;2023-05-07T10:23:04;23.70;77.90
947;DHT22;460;48.734;9.152;2023-05-07T10:25:32;23.70;77.50
947;DHT22;460;48.734;9.152;2023-05-07T10:28:04;23.80;75.70
947;DHT22;460;48.734;9.152;2023-05-07T10:30:39;23.60;76.20
947;DHT22;460;48.734;9.152;2023-05-07T10:33:12;23.90;75.10
947;DHT22;460;48.734;9.152;2023-05-07T10:35:42;24.00;77.10
947;DHT22;460;48.734;9.152;2023-05-07T10:38:09;24.00;74.80
947;DHT22;460;48.734;9.152;2023-05-07T10:40:37;24.10;75.20
947;DHT22;460;48.734;9.152;2023-05-07T10:43:05;24.40;76.90
947;DHT22;460;48.734;9.152;2023-05-07T10:45:33;24.50;75.60
947;DHT22;460;48.734;9.152;2023-05-07T10:48:07;24.90;75.90
947;DHT22;460;48.734;9.152;2023-05-07T10:50:34;24.80;72.10
947;DHT22;460;48.734;9.152;2023-05-07T10:53:20;24.90;73.00
947;DHT22;460;48.734;9.152;2023-05-07T10:55:50;24.90;72.90
947;DHT22;460;48.734;9.152;2023-05-07T10:58:25;24.90;70.90
947;DHT22;460;48.734;9.152;2023-05-07T11:00:56;25.00;69.60
947;DHT22;460;48.734;9.152;2023-05-07T11:03:24;25.00;69.40
947;DHT22;460;48.734;9.152;2023-05-07T11:06:08;25.20;68.60
947;DHT22;460;48.734;9.152;2023-05-07T11:08:55;25.30;68.60
947;DHT22;460;48.734;9.152;2023-05-07T11:11:46;25.60;67.90
947;DHT22;460;48.734;9.152;2023-05-07T11:14:44;25.60;66.70
947;DHT22;460;48.734;9.152;2023-05-07T11:17:11;25.60;68.40
947;DHT22;460;48.734;9.152;2023-05-07T11:19:51;25.70;66.70
947;DHT22;460;48.734;9.152;2023-05-07T11:22:37;26.30;65.90
947;DHT22;460;48.734;9.152;2023-05-07T11:25:06;26.50;63.10
947;DHT22;460;48.734;9.152;2023-05-07T11:27:33;26.60;62.50
947;DHT22;460;48.734;9.152;2023-05-07T11:30:02;26.30;60.30
947;DHT22;460;48.734;9.152;2023-05-07T11:32:30;25.80;62.80
947;DHT22;460;48.734;9.152;2023-05-07T11:34:59;25.60;63.60
947;DHT22;460;48.734;9.152;2023-05-07T11:37:27;25.30;64.80
947;DHT22;460;48.734;9.152;2023-05-07T11:40:02;24.90;65.30
947;DHT22;460;48.734;9.152;2023-05-07T11:42:31;24.70;66.40
947;DHT22;460;48.734;9.152;2023-05-07T11:45:05;24.60;66.40
947;DHT22;460;48.734;9.152;2023-05-07T11:47:32;24.60;65.20
947;DHT22;460;48.734;9.152;2023-05-07T11:50:03;24.70;66.00
947;DHT22;460;48.734;9.152;2023-05-07T11:52:30;24.20;69.70
947;DHT22;460;48.734;9.152;2023-05-07T11:54:58;23.80;69.70
947;DHT22;460;48.734;9.152;2023-05-07T11:57:27;23.70;70.00
947;DHT22;460;48.734;9.152;2023-05-07T11:59:54;23.60;71.60
947;DHT22;460;48.734;9.152;2023-05-07T12:02:23;23.50;71.40
947;DHT22;460;48.734;9.152;2023-05-07T12:04:50;23.30;73.10
947;DHT22;460;48.734;9.152;2023-05-07T12:07:17;22.90;73.90
947;DHT22;460;48.734;9.152;2023-05-07T12:09:45;22.20;77.30
947;DHT22;460;48.734;9.152;2023-05-07T12:12:13;21.80;80.10
947;DHT22;460;48.734;9.152;2023-05-07T12:14:45;21.50;81.70
947;DHT22;460;48.734;9.152;2023-05-07T12:17:13;21.10;82.40
947;DHT22;460;48.734;9.152;2023-05-07T12:19:43;20.70;83.60
947;DHT22;460;48.734;9.152;2023-05-07T12:22:11;20.50;85.60
947;DHT22;460;48.734;9.152;2023-05-07T12:24:45;20.40;88.90
947;DHT22;460;48.734;9.152;2023-05-07T12:27:13;20.10;90.10
947;DHT22;460;48.734;9.152;2023-05-07T12:29:40;19.80;86.10
947;DHT22;460;48.734;9.152;2023-05-07T12:32:13;19.60;85.80
947;DHT22;460;48.734;9.152;2023-05-07T12:34:42;19.30;88.00
947;DHT22;460;48.734;9.152;2023-05-07T12:37:09;19.20;90.00
947;DHT22;460;48.734;9.152;2023-05-07T12:39:36;18.70;91.50
947;DHT22;460;48.734;9.152;2023-05-07T12:42:03;18.40;92.70
947;DHT22;460;48.734;9.152;2023-05-07T12:44:32;18.00;93.50
947;DHT22;460;48.734;9.152;2023-05-07T12:47:02;17.90;91.00
947;DHT22;460;48.734;9.152;2023-05-07T12:49:29;17.60;91.00
947;DHT22;460;48.734;9.152;2023-05-07T12:51:58;17.60;91.10
947;DHT22;460;48.734;9.152;2023-05-07T12:54:29;17.60;92.20
947;DHT22;460;48.734;9.152;2023-05-07T12:57:02;17.60;92.60
947;DHT22;460;48.734;9.152;2023-05-07T12:59:33;17.70;91.20
947;DHT22;460;48.734;9.152;2023-05-07T13:02:02;17.80;90.80
947;DHT22;460;48.734;9.152;2023-05-07T13:04:29;17.50;91.10
947;DHT22;460;48.734;9.152;2023-05-07T13:06:58;17.10;91.20
947;DHT22;460;48.734;9.152;2023-05-07T13:09:25;16.80;93.50
947;DHT22;460;48.734;9.152;2023-05-07T13:11:52;16.90;94.00
947;DHT22;460;48.734;9.152;2023-05-07T13:14:19;16.80;94.40
947;DHT22;460;48.734;9.152;2023-05-07T13:16:46;16.60;97.80
947;DHT22;460;48.734;9.152;2023-05-07T13:19:13;16.70;99.90
947;DHT22;460;48.734;9.152;2023-05-07T13:21:39;16.90;99.00
947;DHT22;460;48.734;9.152;2023-05-07T13:24:08;17.00;97.70
947;DHT22;460;48.734;9.152;2023-05-07T13:26:35;17.10;98.00
947;DHT22;460;48.734;9.152;2023-05-07T13:29:02;17.10;96.70
947;DHT22;460;48.734;9.152;2023-05-07T13:31:28;16.90;96.70
947;DHT22;460;48.734;9.152;2023-05-07T13:33:55;16.60;98.50
947;DHT22;460;48.734;9.152;2023-05-07T13:36:25;16.50;97.70
947;DHT22;460;48.734;9.152;2023-05-07T13:38:52;16.40;98.60
947;DHT22;460;48.734;9.152;2023-05-07T13:41:20;16.40;97.40
947;DHT22;460;48.734;9.152;2023-05-07T13:43:47;16.40;98.80
947;DHT22;460;48.734;9.152;2023-05-07T13:46:16;15.90;99.90
947;DHT22;460;48.734;9.152;2023-05-07T13:48:46;15.50;99.90
947;DHT22;460;48.734;9.152;2023-05-07T13:51:13;15.50;99.90
947;DHT22;460;48.734;9.152;2023-05-07T13:53:40;15.20;99.90
947;DHT22;460;48.734;9.152;2023-05-07T13:56:07;15.20;99.90
947;DHT22;460;48.734;9.152;2023-05-07T13:58:35;15.40;99.90
947;DHT22;460;48.734;9.152;2023-05-07T14:01:04;15.40;99.90
947;DHT22;460;48.734;9.152;2023-05-07T14:03:31;15.50;99.90
947;DHT22;460;48.734;9.152;2023-05-07T14:05:59;15.70;99.90
947;DHT22;460;48.734;9.152;2023-05-07T14:08:27;15.70;99.90
947;DHT22;460;48.734;9.152;2023-05-07T14:10:53;15.70;99.90
947;DHT22;460;48.734;9.152;2023-05-07T14:13:20;15.60;99.90
947;DHT22;460;48.734;9.152;2023-05-07T14:15:48;15.50;99.90
947;DHT22;460;48.734;9.152;2023-05-07T14:18:15;15.50;99.90
947;DHT22;460;48.734;9.152;2023-05-07T14:20:42;15.50;99.90
947;DHT22;460;48.734;9.152;2023-05-07T14:23:11;15.50;99.90
947;DHT22;460;48.734;9.152;2023-05-07T14:25:38;15.50;99.90
947;DHT22;460;48.734;9.152;2023-05-07T14:28:05;15.40;99.90
947;DHT22;460;48.734;9.152;2023-05-07T14:30:32;15.30;99.90
947;DHT22;460;48.734;9.152;2023-05-07T14:33:00;15.30;99.90
947;DHT22;460;48.734;9.152;2023-05-07T14:35:27;15.30;99.90
947;DHT22;460;48.734;9.152;2023-05-07T14:37:53;15.10;99.90
947;DHT22;460;48.734;9.152;2023-05-07T14:40:21;15.40;99.90
947;DHT22;460;48.734;9.152;2023-05-07T14:42:47;15.50;99.90
947;DHT22;460;48.734;9.152;2023-05-07T14:45:14;15.60;99.90
947;DHT22;460;48.734;9.152;2023-05-07T14:47:41;15.70;99.90
947;DHT22;460;48.734;9.152;2023-05-07T14:50:09;15.60;99.90
947;DHT22;460;48.734;9.152;2023-05-07T14:52:36;15.50;99.90
947;DHT22;460;48.734;9.152;2023-05-07T14:55:03;15.60;99.90
947;DHT22;460;48.734;9.152;2023-05-07T14:57:30;15.60;99.90
947;DHT22;460;48.734;9.152;2023-05-07T15:00:00;15.60;99.90
947;DHT22;460;48.734;9.152;2023-05-07T15:02:27;15.70;99.90
947;DHT22;460;48.734;9.152;2023-05-07T15:04:54;15.80;99.90
947;DHT22;460;48.734;9.152;2023-05-07T15:07:22;15.90;99.90
947;DHT22;460;48.734;9.152;2023-05-07T15:09:49;16.00;99.90
947;DHT22;460;48.734;9.152;2023-05-07T15:12:16;16.00;99.90
947;DHT22;460;48.734;9.152;2023-05-07T15:14:43;16.00;99.90
947;DHT22;460;48.734;9.152;2023-05-07T15:17:10;16.10;99.90
947;DHT22;460;48.734;9.152;2023-05-07T15:19:36;16.10;99.90
947;DHT22;460;48.734;9.152;2023-05-07T15:22:03;16.10;99.90
947;DHT22;460;48.734;9.152;2023-05-07T15:24:32;16.10;99.90
947;DHT22;460;48.734;9.152;2023-05-07T15:26:59;16.10;99.90
947;DHT22;460;48.734;9.152;2023-05-07T15:29:26;16.20;99.90
947;DHT22;460;48.734;9.152;2023-05-07T15:31:53;16.10;99.90
947;DHT22;460;48.734;9.152;2023-05-07T15:34:20;16.10;99.90
947;DHT22;460;48.734;9.152;2023-05-07T15:36:47;16.20;99.90
947;DHT22;460;48.734;9.152;2023-05-07T15:39:14;16.30;99.90
947;DHT22;460;48.734;9.152;2023-05-07T15:41:42;16.40;99.90
947;DHT22;460;48.734;9.152;2023-05-07T15:44:09;16.40;99.90
947;DHT22;460;48.734;9.152;2023-05-07T15:46:36;16.40;99.90
947;DHT22;460;48.734;9.152;2023-05-07T15:49:03;16.30;99.90
947;DHT22;460;48.734;9.152;2023-05-07T15:51:30;16.30;99.90
947;DHT22;460;48.734;9.152;2023-05-07T15:53:57;16.40;99.90
947;DHT22;460;48.734;9.152;2023-05-07T15:56:24;16.10;99.90
947;DHT22;460;48.734;9.152;2023-05-07T15:58:52;15.90;99.90
947;DHT22;460;48.734;9.152;2023-05-07T16:01:19;15.80;99.90
947;DHT22;460;48.734;9.152;2023-05-07T16:03:45;15.80;99.90
947;DHT22;460;48.734;9.152;2023-05-07T16:06:12;15.70;99.90
947;DHT22;460;48.734;9.152;2023-05-07T16:08:39;15.80;99.90
947;DHT22;460;48.734;9.152;2023-05-07T16:11:06;15.90;99.90
947;DHT22;460;48.734;9.152;2023-05-07T16:13:34;15.90;99.90
947;DHT22;460;48.734;9.152;2023-05-07T16:16:03;15.70;99.90
947;DHT22;460;48.734;9.152;2023-05-07T16:18:30;15.60;99.90
947;DHT22;460;48.734;9.152;2023-05-07T16:20:57;15.50;99.90
947;DHT22;460;48.734;9.152;2023-05-07T16:23:25;15.40;99.90
947;DHT22;460;48.734;9.152;2023-05-07T16:25:52;15.50;99.90
947;DHT22;460;48.734;9.152;2023-05-07T16:28:18;15.30;99.90
947;DHT22;460;48.734;9.152;2023-05-07T16:30:45;15.30;99.90
947;DHT22;460;48.734;9.152;2023-05-07T16:33:13;15.40;99.90
947;DHT22;460;48.734;9.152;2023-05-07T16:35:40;15.60;99.90
947;DHT22;460;48.734;9.152;2023-05-07T16:38:09;15.60;99.90
947;DHT22;460;48.734;9.152;2023-05-07T16:40:37;15.60;99.90
947;DHT22;460;48.734;9.152;2023-05-07T16:43:04;15.60;99.90